Time;durP1;ratioP1;P1;durP2;ratioP2;P2;SDS_P1;SDS_P2;PMS_P1;PMS_P2;Temp;Humidity;BMP_temperature;BMP_pressure;BME280_temperature;BME280_humidity;BME280_pressure;Samples;Min_cycle;Max_cycle;Signal;HPM_P1;HPM_P2
2020/12/16 00:02:23;;;;;;;53.80;22.60;;;5.50;96.00;;;;;;4995467;28;20100;-84
2020/12/16 00:04:48;;;;;;;393.88;33.47;;;5.50;96.50;;;;;;4995286;28;20905;-82
2020/12/16 00:07:14;;;;;;;53.60;17.23;;;5.60;96.40;;;;;;5013249;28;20056;-82
2020/12/16 00:09:41;;;;;;;20.63;14.13;;;5.60;96.50;;;;;;4999608;28;20029;-84
2020/12/16 00:12:07;;;;;;;79.05;17.55;;;5.60;96.40;;;;;;4998006;28;20067;-84
2020/12/16 00:14:32;;;;;;;192.77;16.70;;;5.40;95.60;;;;;;5009788;28;20476;-82
2020/12/16 00:16:58;;;;;;;124.65;13.80;;;5.30;95.80;;;;;;5030398;28;20064;-84
2020/12/16 00:19:24;;;;;;;105.28;13.27;;;5.20;95.90;;;;;;4998153;28;20041;-84
2020/12/16 00:21:49;;;;;;;67.38;11.52;;;5.30;96.30;;;;;;4997442;28;20091;-84
2020/12/16 00:24:15;;;;;;;55.78;10.48;;;5.10;95.60;;;;;;5005431;28;20045;-84
2020/12/16 00:26:42;;;;;;;78.78;14.13;;;5.00;95.70;;;;;;5000922;28;20090;-84
2020/12/16 00:29:11;;;;;;;118.82;16.50;;;4.90;95.70;;;;;;4996050;28;20030;-83
2020/12/16 00:31:37;;;;;;;113.35;13.50;;;4.90;96.00;;;;;;4997771;28;20061;-83
2020/12/16 00:34:05;;;;;;;112.43;12.60;;;4.80;95.80;;;;;;5016840;28;20025;-84
2020/12/16 00:36:38;;;;;;;95.97;12.65;;;4.80;96.10;;;;;;4993018;28;20041;-84
2020/12/16 00:39:05;;;;;;;95.07;11.80;;;4.90;96.10;;;;;;4996138;28;20033;-83
2020/12/16 00:41:31;;;;;;;73.13;12.10;;;4.80;95.70;;;;;;4993462;28;20029;-83
2020/12/16 00:43:56;;;;;;;84.25;11.82;;;4.80;95.80;;;;;;4989026;28;20037;-83
2020/12/16 00:46:22;;;;;;;91.45;12.75;;;4.80;96.00;;;;;;5010463;28;20022;-84
2020/12/16 00:48:47;;;;;;;82.63;11.95;;;4.80;95.90;;;;;;5013964;28;20083;-84
2020/12/16 00:51:15;;;;;;;136.63;16.02;;;4.70;95.60;;;;;;4995726;28;20396;-84
2020/12/16 00:53:41;;;;;;;154.65;16.48;;;4.70;95.90;;;;;;5000525;28;20416;-83
2020/12/16 00:56:06;;;;;;;152.50;15.75;;;4.70;95.90;;;;;;4987990;28;20026;-84
2020/12/16 00:58:32;;;;;;;81.28;13.23;;;4.60;95.90;;;;;;5028465;28;20025;-84
2020/12/16 01:00:57;;;;;;;76.45;14.68;;;4.60;95.70;;;;;;5020601;28;20105;-82
2020/12/16 01:03:23;;;;;;;26.80;13.25;;;4.50;95.90;;;;;;5009566;28;20113;-84
2020/12/16 01:05:48;;;;;;;27.70;13.98;;;4.50;96.00;;;;;;5026663;28;20022;-85
2020/12/16 01:08:14;;;;;;;23.95;14.43;;;4.70;96.40;;;;;;4998988;28;20026;-85
2020/12/16 01:10:39;;;;;;;28.33;14.75;;;4.70;96.20;;;;;;5001758;28;20081;-82
2020/12/16 01:13:05;;;;;;;71.93;18.00;;;4.80;96.30;;;;;;4997950;28;20034;-85
2020/12/16 01:15:31;;;;;;;27.10;14.10;;;4.80;96.00;;;;;;5010597;28;20436;-84
2020/12/16 01:17:56;;;;;;;25.92;16.55;;;4.70;96.10;;;;;;4999824;28;20473;-83
2020/12/16 01:20:22;;;;;;;61.45;16.80;;;4.90;96.50;;;;;;4997511;28;20144;-84
2020/12/16 01:22:48;;;;;;;34.85;15.65;;;5.00;96.50;;;;;;5016960;28;20037;-83
2020/12/16 01:25:17;;;;;;;24.10;14.07;;;5.00;96.40;;;;;;5000612;28;20487;-86
2020/12/16 01:27:42;;;;;;;23.70;13.18;;;5.10;96.50;;;;;;5011372;28;20041;-84
2020/12/16 01:30:09;;;;;;;23.25;14.13;;;5.20;96.60;;;;;;4996691;28;20401;-85
2020/12/16 01:32:36;;;;;;;43.10;15.70;;;5.20;96.50;;;;;;5015907;28;20036;-84
2020/12/16 01:35:06;;;;;;;23.73;13.30;;;5.30;96.50;;;;;;5028116;28;20488;-84
2020/12/16 01:37:31;;;;;;;22.38;13.23;;;5.30;96.50;;;;;;4996752;28;20044;-84
2020/12/16 01:39:58;;;;;;;22.63;13.68;;;5.50;96.50;;;;;;5011348;28;20037;-85
2020/12/16 01:42:23;;;;;;;26.90;15.05;;;5.60;96.30;;;;;;4995923;28;20071;-85
2020/12/16 01:44:49;;;;;;;27.13;15.80;;;5.50;96.20;;;;;;4996514;28;20488;-84
2020/12/16 01:47:17;;;;;;;26.17;15.45;;;5.50;96.30;;;;;;5000370;28;20477;-84
2020/12/16 01:49:43;;;;;;;20.95;12.05;;;5.50;96.50;;;;;;5014382;28;20025;-84
2020/12/16 01:52:08;;;;;;;25.65;15.32;;;5.50;96.50;;;;;;4999081;28;20090;-83
2020/12/16 01:54:34;;;;;;;24.88;15.00;;;5.60;96.40;;;;;;5026703;28;20034;-84
2020/12/16 01:57:01;;;;;;;19.95;13.82;;;5.60;96.40;;;;;;4993529;28;20133;-83
2020/12/16 01:59:26;;;;;;;22.27;14.18;;;5.60;96.40;;;;;;4996383;28;20803;-84
2020/12/16 02:01:53;;;;;;;28.17;15.52;;;5.60;96.30;;;;;;5012036;28;20045;-84
2020/12/16 02:04:20;;;;;;;27.70;15.32;;;5.60;96.20;;;;;;4999814;28;20040;-84
2020/12/16 02:06:46;;;;;;;26.38;15.45;;;5.50;96.40;;;;;;5012999;28;20079;-84
2020/12/16 02:09:19;;;;;;;17.65;11.20;;;5.50;96.40;;;;;;4995607;28;20128;-83
2020/12/16 02:11:45;;;;;;;28.52;13.23;;;5.40;96.30;;;;;;5015542;28;20037;-85
2020/12/16 02:14:10;;;;;;;26.88;15.35;;;5.50;96.20;;;;;;5007465;28;20095;-85
2020/12/16 02:16:36;;;;;;;39.80;15.55;;;5.50;96.10;;;;;;4996361;28;20481;-84
2020/12/16 02:19:06;;;;;;;25.75;15.15;;;5.40;96.00;;;;;;5007861;28;20128;-84
2020/12/16 02:21:32;;;;;;;23.35;13.93;;;5.30;95.90;;;;;;4997111;28;20476;-85
2020/12/16 02:24:04;;;;;;;25.90;14.25;;;5.20;96.10;;;;;;5012283;28;20036;-84
2020/12/16 02:26:35;;;;;;;23.55;14.05;;;5.20;96.10;;;;;;5009286;28;20033;-85
2020/12/16 02:29:01;;;;;;;26.38;15.55;;;5.10;96.10;;;;;;5029563;28;20171;-84
2020/12/16 02:31:28;;;;;;;25.92;15.57;;;5.10;96.20;;;;;;5010643;28;20509;-84
2020/12/16 02:33:54;;;;;;;22.08;14.35;;;5.20;96.10;;;;;;4994627;28;20033;-84
2020/12/16 02:36:19;;;;;;;27.90;15.52;;;5.10;96.00;;;;;;4993765;28;20030;-84
2020/12/16 02:38:51;;;;;;;25.35;15.25;;;5.10;95.90;;;;;;4994222;28;20208;-84
2020/12/16 02:41:18;;;;;;;25.58;14.70;;;5.00;95.70;;;;;;4995765;28;20465;-85
2020/12/16 02:43:43;;;;;;;29.02;14.50;;;4.90;95.90;;;;;;5030804;28;20029;-84
2020/12/16 02:46:09;;;;;;;20.70;13.50;;;4.90;96.10;;;;;;4992096;28;20433;-84
2020/12/16 02:48:35;;;;;;;22.70;15.32;;;4.90;95.80;;;;;;4995529;28;20028;-85
2020/12/16 02:51:01;;;;;;;28.65;16.73;;;4.80;95.70;;;;;;5015592;28;20075;-85
2020/12/16 02:53:26;;;;;;;21.23;13.20;;;4.70;95.70;;;;;;4994691;28;20029;-84
2020/12/16 02:55:52;;;;;;;26.55;15.18;;;4.70;96.00;;;;;;4993580;28;20025;-84
2020/12/16 02:58:17;;;;;;;54.30;18.05;;;4.80;96.00;;;;;;5013485;28;20116;-84
2020/12/16 03:00:43;;;;;;;30.23;15.27;;;4.60;95.60;;;;;;5013670;28;20160;-84
2020/12/16 03:03:08;;;;;;;28.05;15.82;;;4.50;95.70;;;;;;5013787;28;20025;-84
2020/12/16 03:05:34;;;;;;;27.50;14.68;;;4.40;95.80;;;;;;4993091;28;20060;-85
2020/12/16 03:07:59;;;;;;;30.15;17.40;;;4.40;96.00;;;;;;4995467;28;20088;-85
2020/12/16 03:10:25;;;;;;;25.48;15.35;;;4.50;96.40;;;;;;5010473;28;20026;-83
2020/12/16 03:12:50;;;;;;;24.52;15.05;;;4.60;96.50;;;;;;5009682;28;20043;-84
2020/12/16 03:15:16;;;;;;;27.08;16.05;;;4.60;96.40;;;;;;4994478;28;20025;-85
2020/12/16 03:17:41;;;;;;;41.65;16.58;;;4.60;96.00;;;;;;4995464;28;20026;-84
2020/12/16 03:20:07;;;;;;;26.65;15.63;;;4.50;95.90;;;;;;5008101;28;20034;-85
2020/12/16 03:22:33;;;;;;;22.50;13.93;;;4.30;95.70;;;;;;5016239;28;20037;-85
2020/12/16 03:24:58;;;;;;;25.85;15.20;;;4.20;95.80;;;;;;4992818;28;20022;-85
2020/12/16 03:27:24;;;;;;;27.30;16.10;;;4.30;96.10;;;;;;5012305;28;20067;-85
2020/12/16 03:29:49;;;;;;;28.27;15.77;;;4.30;96.00;;;;;;4994302;28;20064;-83
2020/12/16 03:32:16;;;;;;;31.02;16.80;;;4.20;95.90;;;;;;4994546;28;20287;-84
2020/12/16 03:34:42;;;;;;;29.83;17.33;;;4.20;95.90;;;;;;5001687;28;20083;-84
2020/12/16 03:37:08;;;;;;;30.27;16.30;;;4.10;96.00;;;;;;5000702;28;20465;-83
2020/12/16 03:39:33;;;;;;;26.92;16.05;;;4.10;96.00;;;;;;5004471;28;20064;-84
2020/12/16 03:41:59;;;;;;;30.38;16.83;;;4.10;96.00;;;;;;4997552;28;20038;-84
2020/12/16 03:44:24;;;;;;;39.22;16.40;;;4.10;96.10;;;;;;5012402;28;20044;-84
2020/12/16 03:46:53;;;;;;;57.13;17.23;;;4.10;96.00;;;;;;5032890;28;20034;-84
2020/12/16 03:49:18;;;;;;;38.53;17.35;;;4.10;96.10;;;;;;4997036;28;20033;-84
2020/12/16 03:51:56;;;;;;;34.47;16.60;;;4.10;96.10;;;;;;5005652;28;20033;-83
2020/12/16 03:54:22;;;;;;;164.98;18.40;;;4.10;96.10;;;;;;5005828;28;20033;-80
2020/12/16 03:56:48;;;;;;;225.25;20.35;;;4.30;96.50;;;;;;5011103;28;20033;-80
2020/12/16 03:59:14;;;;;;;376.05;23.90;;;4.20;96.10;;;;;;4997228;28;20089;-84
2020/12/16 04:01:39;;;;;;;318.05;24.88;;;4.10;95.70;;;;;;5012027;28;20034;-84
2020/12/16 04:04:05;;;;;;;64.50;14.38;;;3.80;95.60;;;;;;4999508;28;20124;-84
2020/12/16 04:06:30;;;;;;;54.97;13.40;;;3.90;95.90;;;;;;4997650;28;20072;-84
2020/12/16 04:08:56;;;;;;;104.30;15.27;;;3.80;96.00;;;;;;5016567;28;20033;-84
2020/12/16 04:11:21;;;;;;;30.33;13.45;;;3.90;96.00;;;;;;4992562;28;20049;-83
2020/12/16 04:13:47;;;;;;;22.60;13.55;;;3.90;96.10;;;;;;5014173;28;20025;-83
2020/12/16 04:16:17;;;;;;;26.83;15.32;;;3.90;96.10;;;;;;4993523;28;20029;-85
2020/12/16 04:18:43;;;;;;;26.73;15.27;;;4.00;96.30;;;;;;5009518;28;20045;-84
2020/12/16 04:21:09;;;;;;;28.35;15.75;;;3.90;96.00;;;;;;4995770;28;20029;-84
2020/12/16 04:23:35;;;;;;;25.13;14.73;;;3.80;96.10;;;;;;5019198;28;20033;-84
2020/12/16 04:26:00;;;;;;;31.95;16.90;;;4.00;96.50;;;;;;5014026;28;20198;-83
2020/12/16 04:28:26;;;;;;;31.77;17.98;;;4.00;96.20;;;;;;5010618;28;20101;-83
2020/12/16 04:30:52;;;;;;;34.88;17.27;;;4.00;96.30;;;;;;5016405;28;20048;-84
2020/12/16 04:33:17;;;;;;;29.63;16.30;;;4.00;96.30;;;;;;4997526;28;20049;-84
2020/12/16 04:35:43;;;;;;;36.03;17.77;;;3.90;96.20;;;;;;5034511;28;20546;-84
2020/12/16 04:38:08;;;;;;;33.10;18.42;;;3.90;96.20;;;;;;5015558;28;20519;-84
2020/12/16 04:40:34;;;;;;;35.72;19.25;;;4.00;96.50;;;;;;5004322;28;20032;-84
2020/12/16 04:43:03;;;;;;;35.33;17.52;;;3.90;96.20;;;;;;5030018;28;20042;-83
2020/12/16 04:45:36;;;;;;;30.08;16.00;;;3.90;96.30;;;;;;5013658;28;20111;-84
2020/12/16 04:48:02;;;;;;;30.50;16.65;;;3.90;96.20;;;;;;5012348;28;20033;-84
2020/12/16 04:50:27;;;;;;;28.48;17.00;;;3.80;96.00;;;;;;5015636;28;20036;-84
2020/12/16 04:52:53;;;;;;;28.05;15.68;;;4.00;96.50;;;;;;5015890;28;20045;-83
2020/12/16 04:55:19;;;;;;;26.33;14.55;;;4.10;96.40;;;;;;5014465;28;20033;-83
2020/12/16 04:57:51;;;;;;;24.30;14.07;;;4.00;96.20;;;;;;4997219;28;20029;-83
2020/12/16 05:00:21;;;;;;;32.72;15.60;;;4.00;96.20;;;;;;4996300;28;20049;-83
2020/12/16 05:02:51;;;;;;;20.00;12.60;;;3.90;95.90;;;;;;5010186;28;20478;-84
2020/12/16 05:05:16;;;;;;;26.40;15.13;;;3.90;96.20;;;;;;4979369;28;20389;-83
2020/12/16 05:07:42;;;;;;;29.17;16.25;;;3.80;96.20;;;;;;4994142;28;20034;-83
2020/12/16 05:10:07;;;;;;;30.13;15.25;;;3.50;95.30;;;;;;5002723;28;20029;-84
2020/12/16 05:12:35;;;;;;;30.85;15.93;;;3.40;95.60;;;;;;5019314;28;20068;-83
2020/12/16 05:15:01;;;;;;;31.50;15.63;;;3.40;95.90;;;;;;5013696;28;20053;-83
2020/12/16 05:17:26;;;;;;;30.92;16.00;;;3.30;95.70;;;;;;4992491;28;20411;-84
2020/12/16 05:19:52;;;;;;;23.67;14.77;;;3.30;96.00;;;;;;5012635;28;20477;-84
2020/12/16 05:22:25;;;;;;;22.48;13.48;;;3.30;95.80;;;;;;4997668;28;20033;-83
2020/12/16 05:24:53;;;;;;;21.23;13.63;;;3.20;95.10;;;;;;5014988;28;20370;-84
2020/12/16 05:27:26;;;;;;;22.20;13.57;;;3.10;95.20;;;;;;5029122;28;20033;-84
2020/12/16 05:30:00;;;;;;;25.85;14.45;;;3.00;95.30;;;;;;5011163;28;20033;-85
2020/12/16 05:32:26;;;;;;;24.42;13.38;;;3.00;95.50;;;;;;5001581;28;20036;-85
2020/12/16 05:34:52;;;;;;;30.80;15.68;;;2.90;95.40;;;;;;5030162;28;20033;-85
2020/12/16 05:37:35;;;;;;;29.42;16.27;;;3.10;96.10;;;;;;5006477;28;20037;-84
2020/12/16 05:40:10;;;;;;;29.45;15.80;;;3.20;96.30;;;;;;5023825;28;20481;-84
2020/12/16 05:42:36;;;;;;;29.48;16.30;;;3.40;96.30;;;;;;5009634;28;20388;-84
2020/12/16 05:45:10;;;;;;;25.27;14.85;;;3.40;96.00;;;;;;5007746;28;20041;-84
2020/12/16 05:47:39;;;;;;;31.90;17.08;;;3.30;95.90;;;;;;4996369;28;20029;-83
2020/12/16 05:50:10;;;;;;;29.23;14.75;;;3.40;96.10;;;;;;4998834;28;20047;-84
2020/12/16 05:52:35;;;;;;;28.10;16.33;;;3.50;96.40;;;;;;5011552;28;20543;-83
2020/12/16 05:55:01;;;;;;;43.00;15.75;;;3.50;96.40;;;;;;4999022;28;20053;-83
2020/12/16 05:57:29;;;;;;;27.10;14.98;;;3.60;96.30;;;;;;4994496;28;20106;-84
2020/12/16 06:00:11;;;;;;;33.15;14.95;;;3.50;95.90;;;;;;4999701;28;20026;-84
2020/12/16 06:02:38;;;;;;;29.38;15.73;;;3.40;96.20;;;;;;4999087;28;20025;-84
2020/12/16 06:05:05;;;;;;;28.30;14.70;;;3.40;96.10;;;;;;5015808;28;20046;-84
2020/12/16 06:07:31;;;;;;;78.30;17.27;;;3.30;96.10;;;;;;5013795;28;20034;-84
2020/12/16 06:09:56;;;;;;;62.33;16.75;;;3.40;96.20;;;;;;5009057;28;20037;-84
2020/12/16 06:12:28;;;;;;;39.28;15.80;;;3.30;96.10;;;;;;5009560;28;20073;-84
2020/12/16 06:15:20;;;;;;;59.90;18.15;;;3.30;96.10;;;;;;5027290;28;20147;-84
2020/12/16 06:17:48;;;;;;;37.08;15.85;;;3.30;96.20;;;;;;5022023;28;20038;-85
2020/12/16 06:20:15;;;;;;;37.38;16.85;;;3.30;96.20;;;;;;5008607;28;20081;-84
2020/12/16 06:22:42;;;;;;;38.08;16.85;;;3.30;96.40;;;;;;4995588;28;20124;-84
2020/12/16 06:25:09;;;;;;;39.72;18.10;;;3.40;96.60;;;;;;5010441;28;20054;-84
2020/12/16 06:27:41;;;;;;;56.33;19.27;;;3.50;96.50;;;;;;5014927;28;20536;-84
2020/12/16 06:30:07;;;;;;;35.17;16.65;;;3.40;96.30;;;;;;5027068;28;20124;-84
2020/12/16 06:32:37;;;;;;;35.00;17.40;;;3.30;96.20;;;;;;4997027;28;20721;-84
2020/12/16 06:35:03;;;;;;;36.78;16.02;;;3.30;96.40;;;;;;5010501;28;20072;-83
2020/12/16 06:37:28;;;;;;;299.50;29.50;;;3.30;96.40;;;;;;5029356;28;20071;-84
2020/12/16 06:39:54;;;;;;;270.50;26.05;;;3.30;96.50;;;;;;4997836;28;20033;-84
2020/12/16 06:42:40;;;;;;;52.30;15.40;;;3.40;96.50;;;;;;4995982;28;20025;-83
2020/12/16 06:45:12;;;;;;;31.25;16.10;;;3.40;96.30;;;;;;5002567;28;20133;-84
2020/12/16 06:47:38;;;;;;;31.13;16.45;;;3.50;96.40;;;;;;5008033;28;20075;-84
2020/12/16 06:50:28;;;;;;;20.23;10.85;;;3.40;96.40;;;;;;4998356;28;20034;-84
2020/12/16 06:52:54;;;;;;;35.63;14.43;;;3.60;96.50;;;;;;5013346;28;20040;-84
2020/12/16 06:55:19;;;;;;;19.30;11.00;;;3.60;96.30;;;;;;5029398;28;20021;-83
2020/12/16 06:57:49;;;;;;;37.75;20.73;;;3.70;96.30;;;;;;5001027;28;20034;-84
2020/12/16 07:00:22;;;;;;;53.72;30.77;;;3.60;96.10;;;;;;5006527;28;20728;-83
2020/12/16 07:02:48;;;;;;;28.05;16.55;;;3.60;96.20;;;;;;4998902;28;20716;-84
2020/12/16 07:05:42;;;;;;;37.85;22.95;;;3.70;96.20;;;;;;4996138;28;20485;-84
2020/12/16 07:08:07;;;;;;;34.90;16.70;;;3.60;96.00;;;;;;5011080;28;20124;-83
2020/12/16 07:10:33;;;;;;;31.52;16.10;;;3.50;96.00;;;;;;5013165;28;20128;-84
2020/12/16 07:13:12;;;;;;;32.30;17.60;;;3.50;96.20;;;;;;5023129;28;20033;-83
2020/12/16 07:15:56;;;;;;;36.63;18.75;;;3.60;96.20;;;;;;5016909;28;20029;-83
2020/12/16 07:18:30;;;;;;;31.75;15.45;;;3.60;96.40;;;;;;5001427;28;20033;-83
2020/12/16 07:21:19;;;;;;;35.10;15.98;;;3.60;96.40;;;;;;5026131;28;20498;-83
2020/12/16 07:24:12;;;;;;;34.53;14.88;;;3.60;96.40;;;;;;5004814;28;20120;-83
2020/12/16 07:26:58;;;;;;;30.83;14.57;;;3.70;96.50;;;;;;5011888;28;20504;-83
2020/12/16 07:29:30;;;;;;;33.40;15.63;;;3.60;96.40;;;;;;5003401;28;20522;-83
2020/12/16 07:32:05;;;;;;;32.42;14.85;;;3.70;96.60;;;;;;5021739;28;20038;-83
2020/12/16 07:34:41;;;;;;;35.28;14.95;;;3.70;96.60;;;;;;5009937;28;20021;-83
2020/12/16 07:37:06;;;;;;;33.75;15.20;;;3.80;96.60;;;;;;5019528;28;20072;-83
2020/12/16 07:39:32;;;;;;;27.10;13.93;;;3.70;96.40;;;;;;5005639;28;20026;-83
2020/12/16 07:41:58;;;;;;;28.40;13.65;;;3.70;96.30;;;;;;5027902;28;20034;-83
2020/12/16 07:44:24;;;;;;;28.85;14.23;;;3.70;96.40;;;;;;4992460;28;20033;-83
2020/12/16 07:46:51;;;;;;;30.23;14.00;;;3.60;96.30;;;;;;4996835;28;20029;-82
2020/12/16 07:49:17;;;;;;;29.48;14.10;;;3.50;96.40;;;;;;5008105;28;20555;-82
2020/12/16 07:51:43;;;;;;;30.15;15.10;;;3.60;96.50;;;;;;5008818;28;20083;-82
2020/12/16 07:54:09;;;;;;;36.03;15.05;;;3.60;96.50;;;;;;4995367;28;20037;-82
2020/12/16 07:56:34;;;;;;;36.88;16.40;;;3.70;96.60;;;;;;5022253;28;20590;-84
2020/12/16 07:59:12;;;;;;;38.55;16.40;;;3.80;96.60;;;;;;5011747;28;20128;-84
2020/12/16 08:01:46;;;;;;;32.63;16.15;;;3.80;96.40;;;;;;4986851;28;20061;-84
2020/12/16 08:04:16;;;;;;;37.67;16.42;;;3.70;96.40;;;;;;5004253;28;20090;-83
2020/12/16 08:06:42;;;;;;;31.25;14.82;;;3.70;96.50;;;;;;4993655;28;20397;-84
2020/12/16 08:09:07;;;;;;;41.28;17.05;;;3.70;96.60;;;;;;4988796;28;20054;-84
2020/12/16 08:11:33;;;;;;;43.05;18.02;;;3.80;96.60;;;;;;5007996;28;20110;-83
2020/12/16 08:14:06;;;;;;;37.95;16.58;;;3.80;96.60;;;;;;5026788;28;20080;-83
2020/12/16 08:16:32;;;;;;;44.03;17.85;;;3.80;96.70;;;;;;4995851;28;20022;-83
2020/12/16 08:18:59;;;;;;;48.55;20.92;;;3.80;96.70;;;;;;4997281;28;20449;-83
2020/12/16 08:21:25;;;;;;;53.35;18.10;;;3.90;96.80;;;;;;5011478;28;20022;-83
2020/12/16 08:23:51;;;;;;;41.78;16.65;;;3.90;96.80;;;;;;5015643;28;20041;-82
2020/12/16 08:26:17;;;;;;;66.40;18.33;;;4.00;96.70;;;;;;5030151;28;20397;-82
2020/12/16 08:28:43;;;;;;;60.95;15.00;;;4.00;96.60;;;;;;4999514;28;20034;-82
2020/12/16 08:31:09;;;;;;;149.23;21.80;;;4.10;96.70;;;;;;5014469;28;20037;-82
2020/12/16 08:33:34;;;;;;;39.95;17.20;;;4.20;96.70;;;;;;4997984;28;20034;-82
2020/12/16 08:36:11;;;;;;;27.70;13.18;;;4.10;96.60;;;;;;4996394;28;20065;-82
2020/12/16 08:38:39;;;;;;;37.50;16.05;;;4.20;96.80;;;;;;5031934;28;20037;-82
2020/12/16 08:41:06;;;;;;;35.67;15.95;;;4.20;96.80;;;;;;5004816;28;20809;-82
2020/12/16 08:43:36;;;;;;;34.83;16.13;;;4.20;97.00;;;;;;4993972;28;20038;-81
2020/12/16 08:46:04;;;;;;;39.53;16.38;;;4.20;97.20;;;;;;5014140;28;20037;-81
2020/12/16 08:48:51;;;;;;;39.42;17.20;;;4.30;97.30;;;;;;4998565;28;20052;-83
2020/12/16 08:51:21;;;;;;;22.25;11.75;;;4.50;97.70;;;;;;5031966;28;20439;-83
2020/12/16 08:54:00;;;;;;;29.92;15.85;;;4.80;97.90;;;;;;5011588;28;20033;-81
2020/12/16 08:56:43;;;;;;;25.00;13.40;;;4.80;97.60;;;;;;5020415;28;20049;-83
2020/12/16 08:59:13;;;;;;;18.70;10.48;;;5.00;97.60;;;;;;5019352;28;20021;-82
2020/12/16 09:01:41;;;;;;;24.42;12.70;;;5.30;97.80;;;;;;5002000;28;20084;-80
2020/12/16 09:04:07;;;;;;;21.52;12.88;;;5.70;98.20;;;;;;4995108;28;20496;-80
2020/12/16 09:06:33;;;;;;;23.73;13.32;;;5.80;98.10;;;;;;5028626;28;20048;-80
2020/12/16 09:08:58;;;;;;;23.10;12.93;;;5.90;98.00;;;;;;5010640;28;20029;-85
2020/12/16 09:11:24;;;;;;;18.90;10.80;;;5.90;97.90;;;;;;5012957;28;20036;-83
2020/12/16 09:13:50;;;;;;;15.18;9.63;;;6.30;98.30;;;;;;4994260;28;20032;-86
2020/12/16 09:16:19;;;;;;;12.70;8.75;;;6.80;98.70;;;;;;4990161;28;20022;-84
2020/12/16 09:18:45;;;;;;;12.48;7.72;;;6.90;98.60;;;;;;5005217;28;20616;-82
2020/12/16 09:21:11;;;;;;;13.07;8.23;;;7.10;98.50;;;;;;5007598;28;20025;-83
2020/12/16 09:23:53;;;;;;;12.88;8.20;;;7.60;98.80;;;;;;5015428;28;20033;-84
2020/12/16 09:26:18;;;;;;;14.38;9.65;;;7.90;98.90;;;;;;4989156;28;20069;-84
2020/12/16 09:28:44;;;;;;;15.68;8.85;;;7.90;98.50;;;;;;5001164;28;20100;-83
2020/12/16 09:31:16;;;;;;;13.55;8.93;;;8.30;98.80;;;;;;5009947;28;20363;-83
2020/12/16 09:34:04;;;;;;;10.52;7.32;;;8.20;98.60;;;;;;5016911;28;20129;-83
2020/12/16 09:36:30;;;;;;;12.30;8.02;;;8.10;98.00;;;;;;5018889;28;20040;-83
2020/12/16 09:38:59;;;;;;;12.15;8.02;;;8.30;98.30;;;;;;4990673;28;20391;-83
2020/12/16 09:41:25;;;;;;;15.40;8.90;;;8.80;98.90;;;;;;5002657;28;20037;-82
2020/12/16 09:43:51;;;;;;;12.20;7.72;;;9.00;98.90;;;;;;5007873;28;20041;-83
2020/12/16 09:46:18;;;;;;;13.23;9.10;;;9.00;98.30;;;;;;4991005;28;20116;-83
2020/12/16 09:48:45;;;;;;;13.75;8.85;;;9.00;98.20;;;;;;4993558;28;20465;-82
2020/12/16 09:51:20;;;;;;;10.73;7.63;;;8.90;98.00;;;;;;5000132;28;20113;-82
2020/12/16 09:53:46;;;;;;;12.77;7.65;;;9.20;98.70;;;;;;4992675;28;20061;-82
2020/12/16 09:56:28;;;;;;;12.13;8.18;;;9.40;98.60;;;;;;4990997;28;20087;-82
2020/12/16 09:58:54;;;;;;;13.15;8.13;;;9.70;98.80;;;;;;4996207;28;20049;-83
2020/12/16 10:01:19;;;;;;;10.27;6.88;;;10.00;98.30;;;;;;5011999;28;20240;-83
2020/12/16 10:03:47;;;;;;;12.80;7.85;;;10.30;97.80;;;;;;5003780;28;20034;-83
2020/12/16 10:06:13;;;;;;;11.07;7.18;;;10.50;96.50;;;;;;4994386;28;20033;-83
2020/12/16 10:08:39;;;;;;;12.13;8.32;;;10.30;97.10;;;;;;5018347;28;20173;-83
2020/12/16 10:11:11;;;;;;;10.63;7.75;;;10.40;97.00;;;;;;4990206;28;20059;-82
2020/12/16 10:13:37;;;;;;;15.90;8.30;;;10.40;97.00;;;;;;5009659;28;20642;-83
2020/12/16 10:16:03;;;;;;;11.95;8.45;;;10.40;97.10;;;;;;4993194;28;20109;-84
2020/12/16 10:18:28;;;;;;;10.95;7.65;;;10.40;96.80;;;;;;4997652;28;20120;-83
2020/12/16 10:21:03;;;;;;;14.45;9.38;;;10.60;97.40;;;;;;4992417;28;20145;-84
2020/12/16 10:23:29;;;;;;;13.68;8.20;;;10.60;96.60;;;;;;5010366;28;20040;-84
2020/12/16 10:25:55;;;;;;;12.30;8.32;;;10.90;95.90;;;;;;5010952;28;20022;-82
2020/12/16 10:28:21;;;;;;;9.98;6.80;;;11.40;96.70;;;;;;5011362;28;20033;-83
2020/12/16 10:30:50;;;;;;;11.13;6.97;;;11.80;95.30;;;;;;4990500;28;20033;-83
2020/12/16 10:33:16;;;;;;;10.25;7.47;;;12.00;96.00;;;;;;4989471;28;20046;-83
2020/12/16 10:35:51;;;;;;;8.70;5.60;;;11.90;95.80;;;;;;5004705;28;20029;-83
2020/12/16 10:38:16;;;;;;;9.73;7.28;;;12.10;94.80;;;;;;5013583;28;20536;-83
2020/12/16 10:40:42;;;;;;;9.63;5.45;;;12.10;95.10;;;;;;5015572;28;20124;-82
2020/12/16 10:43:08;;;;;;;8.05;6.22;;;12.00;95.10;;;;;;4993482;28;20030;-83
2020/12/16 10:45:33;;;;;;;8.48;6.10;;;12.60;96.10;;;;;;4990795;28;20044;-82
2020/12/16 10:47:59;;;;;;;8.60;6.10;;;12.40;95.30;;;;;;5010318;28;20042;-83
2020/12/16 10:50:32;;;;;;;9.10;6.40;;;12.40;95.10;;;;;;4987175;28;20034;-83
2020/12/16 10:52:58;;;;;;;8.70;5.68;;;12.40;96.30;;;;;;5006429;28;20120;-81
2020/12/16 10:55:24;;;;;;;8.65;4.60;;;12.50;96.30;;;;;;4993985;28;20218;-83
2020/12/16 10:57:50;;;;;;;8.10;5.90;;;12.60;94.50;;;;;;4990395;28;20079;-82
2020/12/16 11:00:15;;;;;;;6.95;5.28;;;13.00;95.50;;;;;;4996909;28;20043;-83
2020/12/16 11:02:41;;;;;;;7.57;5.07;;;12.70;95.70;;;;;;5016486;28;20047;-83
2020/12/16 11:05:06;;;;;;;8.15;6.30;;;13.20;94.80;;;;;;5004766;28;20472;-83
2020/12/16 11:07:32;;;;;;;7.40;5.25;;;13.60;94.20;;;;;;5006816;28;20128;-83
2020/12/16 11:09:57;;;;;;;6.93;4.57;;;13.50;94.70;;;;;;5027459;28;20086;-83
2020/12/16 11:12:23;;;;;;;7.78;5.50;;;13.40;94.60;;;;;;5004805;28;20584;-83
2020/12/16 11:14:48;;;;;;;7.28;4.85;;;13.60;94.40;;;;;;5005791;28;20040;-82
2020/12/16 11:17:14;;;;;;;5.60;4.93;;;13.60;93.60;;;;;;4990780;28;20030;-83
2020/12/16 11:19:40;;;;;;;6.22;4.72;;;13.90;92.60;;;;;;4998668;28;20025;-83
2020/12/16 11:22:06;;;;;;;8.23;4.57;;;14.20;93.30;;;;;;4983762;28;20033;-83
2020/12/16 11:24:32;;;;;;;7.60;4.35;;;14.20;93.10;;;;;;5005781;28;20034;-83
2020/12/16 11:26:58;;;;;;;5.18;4.15;;;13.90;92.80;;;;;;5005187;28;20030;-83
2020/12/16 11:29:24;;;;;;;4.18;3.20;;;13.90;94.70;;;;;;5006246;28;20037;-83
2020/12/16 11:31:51;;;;;;;6.45;4.60;;;14.30;92.50;;;;;;5006313;28;20443;-83
2020/12/16 11:34:18;;;;;;;4.35;3.80;;;14.40;92.30;;;;;;5007649;28;20180;-83
2020/12/16 11:36:44;;;;;;;6.85;3.83;;;14.90;92.20;;;;;;4991686;28;20439;-83
2020/12/16 11:39:10;;;;;;;6.15;3.90;;;14.60;92.60;;;;;;5006258;28;20088;-82
2020/12/16 11:41:36;;;;;;;4.30;3.90;;;14.90;91.70;;;;;;4987747;28;20042;-82
2020/12/16 11:44:03;;;;;;;6.30;4.30;;;15.10;92.40;;;;;;5010564;28;20026;-83
2020/12/16 11:46:29;;;;;;;3.85;3.28;;;14.70;92.30;;;;;;5012004;28;20400;-83
2020/12/16 11:48:56;;;;;;;4.88;3.83;;;14.60;94.60;;;;;;5007031;28;20030;-82
2020/12/16 11:51:22;;;;;;;4.28;3.72;;;14.80;94.10;;;;;;5008597;28;20439;-81
2020/12/16 11:53:47;;;;;;;4.43;3.42;;;15.10;92.00;;;;;;5002938;28;20038;-82
2020/12/16 11:56:13;;;;;;;4.13;3.60;;;14.90;92.30;;;;;;4994706;28;20030;-82
2020/12/16 11:58:38;;;;;;;4.80;3.42;;;14.90;92.90;;;;;;5007898;28;20029;-82
2020/12/16 12:01:04;;;;;;;2.72;2.10;;;15.20;93.50;;;;;;4991943;28;20033;-82
2020/12/16 12:03:29;;;;;;;4.80;3.30;;;15.30;90.90;;;;;;4992077;28;20419;-82
2020/12/16 12:05:55;;;;;;;4.18;3.08;;;15.30;91.20;;;;;;4991032;28;20675;-82
2020/12/16 12:08:27;;;;;;;3.95;3.33;;;15.30;92.30;;;;;;5012839;28;20025;-81
2020/12/16 12:10:53;;;;;;;4.85;2.90;;;15.30;91.30;;;;;;4998433;28;20109;-81
2020/12/16 12:13:19;;;;;;;4.28;2.90;;;15.40;90.70;;;;;;5013668;28;20152;-81
2020/12/16 12:15:44;;;;;;;3.67;2.70;;;15.50;91.00;;;;;;5015333;28;20113;-79
2020/12/16 12:18:10;;;;;;;3.80;3.40;;;15.50;90.70;;;;;;5018103;28;20025;-80
2020/12/16 12:20:35;;;;;;;3.72;3.15;;;15.60;90.30;;;;;;5009118;28;20535;-81
2020/12/16 12:23:01;;;;;;;3.05;2.67;;;15.50;90.20;;;;;;5019639;28;20071;-81
2020/12/16 12:25:26;;;;;;;5.07;3.33;;;15.50;89.50;;;;;;4990230;28;20033;-81
2020/12/16 12:27:52;;;;;;;3.42;3.03;;;15.40;89.70;;;;;;4991871;28;20069;-81
2020/12/16 12:30:17;;;;;;;3.72;3.33;;;14.90;90.10;;;;;;5007472;28;20060;-81
2020/12/16 12:32:43;;;;;;;6.03;2.97;;;14.90;87.60;;;;;;4992907;28;20164;-81
2020/12/16 12:35:08;;;;;;;3.45;3.08;;;14.70;88.20;;;;;;4998050;28;20033;-81
2020/12/16 12:37:34;;;;;;;3.33;3.00;;;14.70;89.80;;;;;;5014035;28;20041;-80
2020/12/16 12:39:59;;;;;;;3.42;3.00;;;14.40;90.30;;;;;;5014929;28;20068;-80
2020/12/16 12:42:28;;;;;;;4.40;3.40;;;14.40;88.50;;;;;;4992453;28;20445;-80